Kelp Reefs, B. C.

METAR KFHR TAF CYWH
9 °C
°C
-
°C
30m
Âge
21:37:32
LT
20:37
UTC
0 ft

2.000

4.000

6.000

8.000

10.000

FEW 600
SCT 4.300
OVC 5.500
VFR
<?= Yii::t('app', 'Wind direction') ?> <?= Yii::t('app', 'of'); ?>
220°
17:16
Coucher de soleil
87%
Humidité
Cisaillement du vent
Fermé/neige
Portée visuelle RWY
Condition RWY
Visibilité vert.
Visibilité min.
CAVOK
Tendance
Correction
Rapport spécial
29,87 inHg
QNH
METAR KFHR 052008Z AUTO 22005KT 10SM -RA FEW006 SCT043 OVC055 09/07 A2987 RMK AO2 P0000 T00890067 $
Pluie légère
0 kt
0 kt
12:00
VFR
15 kt
13:00
VFR
15 kt
14:00
VFR
15 kt
15:00
MVFR
15 kt
16:00
MVFR
15 kt
17:00
MVFR
15 kt
18:00
MVFR
15 kt
10 mi
Vue
5.500 ft
Base cloud
5 kt
Vent
metar-taf.com/CWZO

Metar-Taf.com

Décodeur visuel

Nous et des tiers suivons ton comportement Internet sur notre site Web à l'aide de cookies. Si tu continues, nous supposons que tu es d'accord avec notre Politique en matière de cookies.